sensor_id;sensor_type;location;lat;lon;timestamp;pressure;altitude;pressure_sealevel;temperature;humidity
75627;BME280;67372;49.404;11.034;2023-06-19T00:00:48;97753.97;;;20.78;41.41
75627;BME280;67372;49.404;11.034;2023-06-19T00:03:15;97751.84;;;20.75;41.42
75627;BME280;67372;49.404;11.034;2023-06-19T00:05:41;97754.88;;;20.74;41.63
75627;BME280;67372;49.404;11.034;2023-06-19T00:08:08;97751.63;;;20.72;41.64
75627;BME280;67372;49.404;11.034;2023-06-19T00:10:34;97751.63;;;20.72;41.43
75627;BME280;67372;49.404;11.034;2023-06-19T00:13:00;97755.44;;;20.71;41.83
75627;BME280;67372;49.404;11.034;2023-06-19T00:15:27;97759.25;;;20.70;41.90
75627;BME280;67372;49.404;11.034;2023-06-19T00:17:53;97753.31;;;20.68;42.08
75627;BME280;67372;49.404;11.034;2023-06-19T00:20:20;97749.22;;;20.70;41.92
75627;BME280;67372;49.404;11.034;2023-06-19T00:22:46;97747.09;;;20.67;41.82
75627;BME280;67372;49.404;11.034;2023-06-19T00:25:13;97747.41;;;20.66;41.42
75627;BME280;67372;49.404;11.034;2023-06-19T00:27:39;97740.38;;;20.65;41.54
75627;BME280;67372;49.404;11.034;2023-06-19T00:30:06;97741.16;;;20.65;41.92
75627;BME280;67372;49.404;11.034;2023-06-19T00:32:32;97740.66;;;20.63;41.75
75627;BME280;67372;49.404;11.034;2023-06-19T00:34:59;97742.28;;;20.64;41.66
75627;BME280;67372;49.404;11.034;2023-06-19T00:37:25;97740.06;;;20.66;41.36
75627;BME280;67372;49.404;11.034;2023-06-19T00:39:51;97747.97;;;20.63;41.43
75627;BME280;67372;49.404;11.034;2023-06-19T00:42:18;97743.66;;;20.62;41.51
75627;BME280;67372;49.404;11.034;2023-06-19T00:44:44;97749.38;;;20.60;41.61
75627;BME280;67372;49.404;11.034;2023-06-19T00:47:11;97746.13;;;20.58;41.50
75627;BME280;67372;49.404;11.034;2023-06-19T00:49:38;97743.72;;;20.57;41.13
75627;BME280;67372;49.404;11.034;2023-06-19T00:52:05;97750.53;;;20.54;41.68
75627;BME280;67372;49.404;11.034;2023-06-19T00:54:32;97751.41;;;20.49;41.88
75627;BME280;67372;49.404;11.034;2023-06-19T00:56:59;97754.69;;;20.46;41.47
75627;BME280;67372;49.404;11.034;2023-06-19T00:59:26;97758.81;;;20.44;41.74
75627;BME280;67372;49.404;11.034;2023-06-19T01:01:52;97757.47;;;20.41;41.86
75627;BME280;67372;49.404;11.034;2023-06-19T01:04:19;97752.41;;;20.35;41.76
75627;BME280;67372;49.404;11.034;2023-06-19T01:06:59;97747.53;;;20.32;42.37
75627;BME280;67372;49.404;11.034;2023-06-19T01:09:34;97754.94;;;20.26;43.32
75627;BME280;67372;49.404;11.034;2023-06-19T01:12:21;97747.97;;;20.20;42.79
75627;BME280;67372;49.404;11.034;2023-06-19T01:14:53;97744.22;;;20.16;42.86
75627;BME280;67372;49.404;11.034;2023-06-19T01:17:21;97746.16;;;20.10;42.61
75627;BME280;67372;49.404;11.034;2023-06-19T01:19:48;97743.53;;;20.05;42.84
75627;BME280;67372;49.404;11.034;2023-06-19T01:22:30;97749.53;;;20.02;42.92
75627;BME280;67372;49.404;11.034;2023-06-19T01:24:56;97738.16;;;20.00;42.62
75627;BME280;67372;49.404;11.034;2023-06-19T01:27:24;97742.56;;;19.96;42.77
75627;BME280;67372;49.404;11.034;2023-06-19T01:29:51;97739.91;;;19.91;42.85
75627;BME280;67372;49.404;11.034;2023-06-19T01:32:21;97748.63;;;19.88;42.96
75627;BME280;67372;49.404;11.034;2023-06-19T01:34:51;97748.88;;;19.86;43.35
75627;BME280;67372;49.404;11.034;2023-06-19T01:37:19;97744.63;;;19.80;43.29
75627;BME280;67372;49.404;11.034;2023-06-19T01:39:45;97742.50;;;19.77;43.19
75627;BME280;67372;49.404;11.034;2023-06-19T01:42:13;97738.50;;;19.70;43.74
75627;BME280;67372;49.404;11.034;2023-06-19T01:44:41;97745.59;;;19.66;43.17
75627;BME280;67372;49.404;11.034;2023-06-19T01:47:11;97748.59;;;19.64;43.66
75627;BME280;67372;49.404;11.034;2023-06-19T01:49:38;97749.94;;;19.61;43.48
75627;BME280;67372;49.404;11.034;2023-06-19T01:52:05;97752.41;;;19.58;43.69
75627;BME280;67372;49.404;11.034;2023-06-19T01:54:31;97759.50;;;19.54;44.24
75627;BME280;67372;49.404;11.034;2023-06-19T01:56:58;97760.03;;;19.51;45.18
75627;BME280;67372;49.404;11.034;2023-06-19T01:59:25;97750.06;;;19.46;46.20
75627;BME280;67372;49.404;11.034;2023-06-19T02:01:51;97759.06;;;19.42;45.68
75627;BME280;67372;49.404;11.034;2023-06-19T02:04:17;97753.66;;;19.37;45.74
75627;BME280;67372;49.404;11.034;2023-06-19T02:06:44;97755.31;;;19.32;46.37
75627;BME280;67372;49.404;11.034;2023-06-19T02:09:10;97751.06;;;19.26;46.12
75627;BME280;67372;49.404;11.034;2023-06-19T02:11:37;97758.41;;;19.21;46.11
75627;BME280;67372;49.404;11.034;2023-06-19T02:14:03;97761.41;;;19.14;46.41
75627;BME280;67372;49.404;11.034;2023-06-19T02:16:29;97763.09;;;19.10;46.63
75627;BME280;67372;49.404;11.034;2023-06-19T02:18:56;97754.78;;;19.01;47.22
75627;BME280;67372;49.404;11.034;2023-06-19T02:21:22;97761.84;;;18.97;47.04
75627;BME280;67372;49.404;11.034;2023-06-19T02:23:49;97759.41;;;18.96;46.65
75627;BME280;67372;49.404;11.034;2023-06-19T02:26:15;97758.09;;;18.93;46.91
75627;BME280;67372;49.404;11.034;2023-06-19T02:28:42;97753.22;;;18.90;46.82
75627;BME280;67372;49.404;11.034;2023-06-19T02:31:08;97752.97;;;18.87;47.13
75627;BME280;67372;49.404;11.034;2023-06-19T02:33:34;97752.69;;;18.88;46.97
75627;BME280;67372;49.404;11.034;2023-06-19T02:36:01;97753.22;;;18.90;46.72
75627;BME280;67372;49.404;11.034;2023-06-19T02:38:27;97758.09;;;18.93;46.71
75627;BME280;67372;49.404;11.034;2023-06-19T02:40:54;97749.69;;;18.95;46.66
75627;BME280;67372;49.404;11.034;2023-06-19T02:43:20;97747.50;;;18.97;46.44
75627;BME280;67372;49.404;11.034;2023-06-19T02:45:46;97741.81;;;18.98;46.58
75627;BME280;67372;49.404;11.034;2023-06-19T02:48:13;97746.38;;;19.03;46.36
75627;BME280;67372;49.404;11.034;2023-06-19T02:50:39;97748.75;;;19.10;46.18
75627;BME280;67372;49.404;11.034;2023-06-19T02:53:06;97759.81;;;19.13;46.21
75627;BME280;67372;49.404;11.034;2023-06-19T02:55:32;97758.69;;;19.19;46.04
75627;BME280;67372;49.404;11.034;2023-06-19T02:57:58;97759.75;;;19.23;45.92
75627;BME280;67372;49.404;11.034;2023-06-19T03:00:25;97764.31;;;19.28;45.85
75627;BME280;67372;49.404;11.034;2023-06-19T03:02:51;97759.41;;;19.30;45.86
75627;BME280;67372;49.404;11.034;2023-06-19T03:05:18;97760.44;;;19.34;45.50
75627;BME280;67372;49.404;11.034;2023-06-19T03:07:44;97761.78;;;19.37;45.76
75627;BME280;67372;49.404;11.034;2023-06-19T03:10:11;97767.47;;;19.40;45.65
75627;BME280;67372;49.404;11.034;2023-06-19T03:12:37;97762.03;;;19.40;45.56
75627;BME280;67372;49.404;11.034;2023-06-19T03:15:04;97760.38;;;19.44;45.41
75627;BME280;67372;49.404;11.034;2023-06-19T03:17:30;97768.22;;;19.46;45.95
75627;BME280;67372;49.404;11.034;2023-06-19T03:19:57;97778.47;;;19.49;45.50
75627;BME280;67372;49.404;11.034;2023-06-19T03:22:23;97783.31;;;19.52;45.27
75627;BME280;67372;49.404;11.034;2023-06-19T03:24:49;97780.06;;;19.55;45.62
75627;BME280;67372;49.404;11.034;2023-06-19T03:27:16;97788.16;;;19.55;45.70
75627;BME280;67372;49.404;11.034;2023-06-19T03:29:42;97791.13;;;19.58;45.62
75627;BME280;67372;49.404;11.034;2023-06-19T03:32:09;97795.66;;;19.63;45.48
75627;BME280;67372;49.404;11.034;2023-06-19T03:34:35;97805.38;;;19.69;45.47
75627;BME280;67372;49.404;11.034;2023-06-19T03:37:01;97806.13;;;19.75;45.45
75627;BME280;67372;49.404;11.034;2023-06-19T03:39:28;97810.69;;;19.79;45.36
75627;BME280;67372;49.404;11.034;2023-06-19T03:41:54;97809.00;;;19.83;45.33
75627;BME280;67372;49.404;11.034;2023-06-19T03:44:21;97818.47;;;19.86;45.50
75627;BME280;67372;49.404;11.034;2023-06-19T03:46:47;97828.16;;;19.92;45.40
75627;BME280;67372;49.404;11.034;2023-06-19T03:49:13;97829.50;;;19.95;46.08
75627;BME280;67372;49.404;11.034;2023-06-19T03:51:40;97838.66;;;19.99;46.57
75627;BME280;67372;49.404;11.034;2023-06-19T03:54:06;97849.44;;;20.04;47.69
75627;BME280;67372;49.404;11.034;2023-06-19T03:56:33;97850.28;;;19.99;48.08
75627;BME280;67372;49.404;11.034;2023-06-19T03:58:59;97852.19;;;19.99;48.14
75627;BME280;67372;49.404;11.034;2023-06-19T04:01:25;97858.47;;;19.94;48.54
75627;BME280;67372;49.404;11.034;2023-06-19T04:03:52;97852.31;;;19.88;48.32
75627;BME280;67372;49.404;11.034;2023-06-19T04:06:18;97855.84;;;19.84;48.47
75627;BME280;67372;49.404;11.034;2023-06-19T04:08:44;97858.56;;;19.84;48.10
75627;BME280;67372;49.404;11.034;2023-06-19T04:11:11;97859.06;;;19.86;48.38
75627;BME280;67372;49.404;11.034;2023-06-19T04:13:37;97848.81;;;19.83;48.29
75627;BME280;67372;49.404;11.034;2023-06-19T04:16:04;97848.28;;;19.81;48.46
75627;BME280;67372;49.404;11.034;2023-06-19T04:18:30;97847.19;;;19.82;48.65
75627;BME280;67372;49.404;11.034;2023-06-19T04:20:56;97854.22;;;19.83;48.67
75627;BME280;67372;49.404;11.034;2023-06-19T04:23:23;97848.00;;;19.87;48.67
75627;BME280;67372;49.404;11.034;2023-06-19T04:25:49;97855.47;;;19.96;48.62
75627;BME280;67372;49.404;11.034;2023-06-19T04:28:16;97852.13;;;20.04;48.60
75627;BME280;67372;49.404;11.034;2023-06-19T04:30:42;97857.75;;;20.12;48.41
75627;BME280;67372;49.404;11.034;2023-06-19T04:33:08;97857.13;;;20.20;48.34
75627;BME280;67372;49.404;11.034;2023-06-19T04:35:35;97859.72;;;20.31;48.22
75627;BME280;67372;49.404;11.034;2023-06-19T04:38:01;97854.38;;;20.49;48.08
75627;BME280;67372;49.404;11.034;2023-06-19T04:40:28;97857.88;;;20.74;48.31
75627;BME280;67372;49.404;11.034;2023-06-19T04:42:54;97866.34;;;20.91;48.11
75627;BME280;67372;49.404;11.034;2023-06-19T04:45:20;97855.56;;;21.05;47.89
75627;BME280;67372;49.404;11.034;2023-06-19T04:47:47;97865.50;;;21.14;47.46
75627;BME280;67372;49.404;11.034;2023-06-19T04:50:22;97864.31;;;21.21;47.06
75627;BME280;67372;49.404;11.034;2023-06-19T04:52:49;97869.97;;;21.24;46.84
75627;BME280;67372;49.404;11.034;2023-06-19T04:55:16;97878.88;;;21.30;46.86
75627;BME280;67372;49.404;11.034;2023-06-19T04:57:42;97872.34;;;21.31;46.93
75627;BME280;67372;49.404;11.034;2023-06-19T05:00:09;97875.06;;;21.31;47.22
75627;BME280;67372;49.404;11.034;2023-06-19T05:02:35;97866.91;;;21.31;47.23
75627;BME280;67372;49.404;11.034;2023-06-19T05:05:02;97864.41;;;21.34;46.86
75627;BME280;67372;49.404;11.034;2023-06-19T05:07:30;97867.84;;;21.40;46.41
75627;BME280;67372;49.404;11.034;2023-06-19T05:09:57;97867.19;;;21.48;46.92
75627;BME280;67372;49.404;11.034;2023-06-19T05:12:23;97866.53;;;21.56;46.98
75627;BME280;67372;49.404;11.034;2023-06-19T05:14:50;97870.47;;;21.64;46.78
75627;BME280;67372;49.404;11.034;2023-06-19T05:17:16;97880.66;;;21.72;46.82
75627;BME280;67372;49.404;11.034;2023-06-19T05:19:42;97881.00;;;21.84;47.06
75627;BME280;67372;49.404;11.034;2023-06-19T05:22:09;97873.97;;;21.97;46.95
75627;BME280;67372;49.404;11.034;2023-06-19T05:24:35;97879.50;;;22.11;46.79
75627;BME280;67372;49.404;11.034;2023-06-19T05:27:02;97880.09;;;22.21;46.66
75627;BME280;67372;49.404;11.034;2023-06-19T05:29:28;97882.03;;;22.34;46.48
75627;BME280;67372;49.404;11.034;2023-06-19T05:31:54;97881.25;;;22.48;46.49
75627;BME280;67372;49.404;11.034;2023-06-19T05:34:21;97889.41;;;22.61;46.56
75627;BME280;67372;49.404;11.034;2023-06-19T05:36:47;97879.03;;;22.77;46.48
75627;BME280;67372;49.404;11.034;2023-06-19T05:39:14;97885.19;;;22.96;46.11
75627;BME280;67372;49.404;11.034;2023-06-19T05:41:40;97893.63;;;23.09;45.83
75627;BME280;67372;49.404;11.034;2023-06-19T05:44:07;97889.59;;;23.20;45.69
75627;BME280;67372;49.404;11.034;2023-06-19T05:46:33;97895.09;;;23.28;45.55
75627;BME280;67372;49.404;11.034;2023-06-19T05:48:59;97896.47;;;23.40;45.45
75627;BME280;67372;49.404;11.034;2023-06-19T05:51:26;97900.91;;;23.49;45.58
75627;BME280;67372;49.404;11.034;2023-06-19T05:53:52;97910.66;;;23.64;45.30
75627;BME280;67372;49.404;11.034;2023-06-19T05:56:19;97906.94;;;23.82;45.39
75627;BME280;67372;49.404;11.034;2023-06-19T05:58:45;97917.34;;;24.03;45.13
75627;BME280;67372;49.404;11.034;2023-06-19T06:01:12;97919.06;;;24.21;44.74
75627;BME280;67372;49.404;11.034;2023-06-19T06:03:38;97928.78;;;24.36;44.08
75627;BME280;67372;49.404;11.034;2023-06-19T06:06:04;97928.06;;;24.44;43.98
75627;BME280;67372;49.404;11.034;2023-06-19T06:08:31;97932.38;;;24.45;43.98
75627;BME280;67372;49.404;11.034;2023-06-19T06:10:57;97937.34;;;24.43;43.93
75627;BME280;67372;49.404;11.034;2023-06-19T06:13:24;97946.16;;;24.40;44.21
75627;BME280;67372;49.404;11.034;2023-06-19T06:15:50;97941.13;;;24.33;44.33
75627;BME280;67372;49.404;11.034;2023-06-19T06:18:17;97939.03;;;24.30;44.29
75627;BME280;67372;49.404;11.034;2023-06-19T06:20:43;97934.00;;;24.24;44.43
75627;BME280;67372;49.404;11.034;2023-06-19T06:23:10;97938.47;;;24.19;44.59
75627;BME280;67372;49.404;11.034;2023-06-19T06:25:36;97936.06;;;24.18;44.88
75627;BME280;67372;49.404;11.034;2023-06-19T06:28:02;97946.47;;;24.16;44.78
75627;BME280;67372;49.404;11.034;2023-06-19T06:30:29;97943.75;;;24.16;45.11
75627;BME280;67372;49.404;11.034;2023-06-19T06:32:55;97950.81;;;24.17;44.79
75627;BME280;67372;49.404;11.034;2023-06-19T06:35:22;97948.09;;;24.17;45.03
75627;BME280;67372;49.404;11.034;2023-06-19T06:37:48;97953.53;;;24.17;45.27
75627;BME280;67372;49.404;11.034;2023-06-19T06:40:15;97956.75;;;24.19;45.31
75627;BME280;67372;49.404;11.034;2023-06-19T06:42:41;97964.31;;;24.22;45.41
75627;BME280;67372;49.404;11.034;2023-06-19T06:45:08;97965.91;;;24.23;45.53
75627;BME280;67372;49.404;11.034;2023-06-19T06:47:35;97969.13;;;24.25;45.56
75627;BME280;67372;49.404;11.034;2023-06-19T06:50:01;97966.09;;;24.27;45.73
75627;BME280;67372;49.404;11.034;2023-06-19T06:52:28;97967.91;;;24.31;45.86
75627;BME280;67372;49.404;11.034;2023-06-19T06:54:54;97965.25;;;24.40;45.86
75627;BME280;67372;49.404;11.034;2023-06-19T06:57:20;97970.59;;;24.54;45.86
75627;BME280;67372;49.404;11.034;2023-06-19T06:59:47;97976.00;;;24.67;45.61
75627;BME280;67372;49.404;11.034;2023-06-19T07:02:13;97971.69;;;24.84;45.40
75627;BME280;67372;49.404;11.034;2023-06-19T07:04:40;97965.41;;;25.05;45.19
75627;BME280;67372;49.404;11.034;2023-06-19T07:07:06;97969.78;;;25.24;44.76
75627;BME280;67372;49.404;11.034;2023-06-19T07:09:33;97968.50;;;25.30;45.02
75627;BME280;67372;49.404;11.034;2023-06-19T07:11:59;97968.38;;;25.35;44.96
75627;BME280;67372;49.404;11.034;2023-06-19T07:14:26;97973.06;;;25.43;45.20
75627;BME280;67372;49.404;11.034;2023-06-19T07:16:52;97970.19;;;25.57;44.47
75627;BME280;67372;49.404;11.034;2023-06-19T07:19:18;97979.81;;;25.54;44.45
75627;BME280;67372;49.404;11.034;2023-06-19T07:21:45;97984.81;;;25.61;44.09
75627;BME280;67372;49.404;11.034;2023-06-19T07:24:11;97987.72;;;25.56;44.47
75627;BME280;67372;49.404;11.034;2023-06-19T07:26:38;97980.44;;;25.51;44.55
75627;BME280;67372;49.404;11.034;2023-06-19T07:29:04;97992.06;;;25.57;44.27
75627;BME280;67372;49.404;11.034;2023-06-19T07:31:31;97977.91;;;25.63;44.82
75627;BME280;67372;49.404;11.034;2023-06-19T07:33:57;97988.22;;;25.75;44.15
75627;BME280;67372;49.404;11.034;2023-06-19T07:36:23;97983.91;;;25.91;43.90
75627;BME280;67372;49.404;11.034;2023-06-19T07:38:51;97985.81;;;25.99;43.99
75627;BME280;67372;49.404;11.034;2023-06-19T07:41:17;97992.25;;;26.12;43.67
75627;BME280;67372;49.404;11.034;2023-06-19T07:43:44;97993.03;;;26.21;42.88
75627;BME280;67372;49.404;11.034;2023-06-19T07:46:10;97987.75;;;26.16;43.20
75627;BME280;67372;49.404;11.034;2023-06-19T07:48:37;97994.84;;;26.09;42.76
75627;BME280;67372;49.404;11.034;2023-06-19T07:51:03;97988.25;;;26.10;43.24
75627;BME280;67372;49.404;11.034;2023-06-19T07:53:29;97987.09;;;26.11;43.32
75627;BME280;67372;49.404;11.034;2023-06-19T07:55:56;97994.50;;;26.19;43.57
75627;BME280;67372;49.404;11.034;2023-06-19T07:58:22;97994.50;;;26.27;42.83
75627;BME280;67372;49.404;11.034;2023-06-19T08:00:49;97999.31;;;26.48;42.51
75627;BME280;67372;49.404;11.034;2023-06-19T08:03:15;97999.78;;;26.58;41.96
75627;BME280;67372;49.404;11.034;2023-06-19T08:05:41;98002.94;;;26.78;41.82
75627;BME280;67372;49.404;11.034;2023-06-19T08:08:08;98007.94;;;26.76;41.87
75627;BME280;67372;49.404;11.034;2023-06-19T08:10:34;98007.81;;;26.64;42.01
75627;BME280;67372;49.404;11.034;2023-06-19T08:13:01;98002.94;;;26.69;42.47
75627;BME280;67372;49.404;11.034;2023-06-19T08:15:27;98011.50;;;26.76;42.57
75627;BME280;67372;49.404;11.034;2023-06-19T08:17:53;98010.59;;;26.93;42.44
75627;BME280;67372;49.404;11.034;2023-06-19T08:20:20;98012.31;;;27.15;41.91
75627;BME280;67372;49.404;11.034;2023-06-19T08:22:47;98020.06;;;27.42;41.57
75627;BME280;67372;49.404;11.034;2023-06-19T08:25:14;98015.47;;;27.64;40.62
75627;BME280;67372;49.404;11.034;2023-06-19T08:27:40;98009.13;;;27.72;40.42
75627;BME280;67372;49.404;11.034;2023-06-19T08:30:07;98011.88;;;27.72;40.62
75627;BME280;67372;49.404;11.034;2023-06-19T08:32:33;98007.06;;;27.69;40.56
75627;BME280;67372;49.404;11.034;2023-06-19T08:35:00;98006.88;;;27.74;40.58
75627;BME280;67372;49.404;11.034;2023-06-19T08:37:26;98019.44;;;27.96;39.73
75627;BME280;67372;49.404;11.034;2023-06-19T08:39:53;98013.16;;;27.95;40.21
75627;BME280;67372;49.404;11.034;2023-06-19T08:42:19;98017.50;;;27.96;40.11
75627;BME280;67372;49.404;11.034;2023-06-19T08:44:45;98016.63;;;28.04;40.30
75627;BME280;67372;49.404;11.034;2023-06-19T08:47:12;98014.88;;;28.21;40.13
75627;BME280;67372;49.404;11.034;2023-06-19T08:49:39;98007.13;;;28.23;39.72
75627;BME280;67372;49.404;11.034;2023-06-19T08:52:05;98015.97;;;28.28;39.33
75627;BME280;67372;49.404;11.034;2023-06-19T08:54:32;98017.84;;;28.16;39.14
75627;BME280;67372;49.404;11.034;2023-06-19T08:57:02;98019.03;;;28.06;40.04
75627;BME280;67372;49.404;11.034;2023-06-19T08:59:30;98020.25;;;27.96;40.29
75627;BME280;67372;49.404;11.034;2023-06-19T09:01:57;98012.53;;;28.10;40.01
75627;BME280;67372;49.404;11.034;2023-06-19T09:04:24;98017.09;;;28.06;39.66
75627;BME280;67372;49.404;11.034;2023-06-19T09:06:55;98010.25;;;28.12;39.81
75627;BME280;67372;49.404;11.034;2023-06-19T09:09:24;98018.38;;;28.30;39.69
75627;BME280;67372;49.404;11.034;2023-06-19T09:12:05;98007.13;;;28.43;39.22
75627;BME280;67372;49.404;11.034;2023-06-19T09:14:39;98010.19;;;28.42;39.51
75627;BME280;67372;49.404;11.034;2023-06-19T09:17:09;98007.78;;;28.40;39.67
75627;BME280;67372;49.404;11.034;2023-06-19T09:19:38;98005.63;;;28.46;39.55
75627;BME280;67372;49.404;11.034;2023-06-19T09:22:07;98003.38;;;28.60;39.09
75627;BME280;67372;49.404;11.034;2023-06-19T09:24:35;98001.34;;;28.69;39.07
75627;BME280;67372;49.404;11.034;2023-06-19T09:27:09;98002.72;;;28.63;38.67
75627;BME280;67372;49.404;11.034;2023-06-19T09:29:37;98002.94;;;28.70;39.14
75627;BME280;67372;49.404;11.034;2023-06-19T09:32:20;98000.91;;;28.80;38.94
75627;BME280;67372;49.404;11.034;2023-06-19T09:34:48;98008.28;;;29.00;38.78
75627;BME280;67372;49.404;11.034;2023-06-19T09:37:15;98003.38;;;29.30;37.79
75627;BME280;67372;49.404;11.034;2023-06-19T09:39:45;97994.56;;;29.37;37.69
75627;BME280;67372;49.404;11.034;2023-06-19T09:42:13;97997.09;;;29.54;37.53
75627;BME280;67372;49.404;11.034;2023-06-19T09:44:42;97997.44;;;29.64;37.13
75627;BME280;67372;49.404;11.034;2023-06-19T09:47:18;97998.13;;;29.61;36.80
75627;BME280;67372;49.404;11.034;2023-06-19T09:49:49;98003.59;;;29.74;37.05
75627;BME280;67372;49.404;11.034;2023-06-19T09:52:16;98000.28;;;29.68;37.98
75627;BME280;67372;49.404;11.034;2023-06-19T09:54:43;97989.38;;;29.72;37.53
75627;BME280;67372;49.404;11.034;2023-06-19T09:57:10;97986.63;;;29.72;37.36
75627;BME280;67372;49.404;11.034;2023-06-19T09:59:39;97986.53;;;29.68;36.90
75627;BME280;67372;49.404;11.034;2023-06-19T10:02:06;97980.03;;;29.60;37.22
75627;BME280;67372;49.404;11.034;2023-06-19T10:04:46;97987.31;;;29.69;37.73
75627;BME280;67372;49.404;11.034;2023-06-19T10:07:19;97988.22;;;29.73;37.53
75627;BME280;67372;49.404;11.034;2023-06-19T10:09:57;97992.03;;;29.68;37.57
75627;BME280;67372;49.404;11.034;2023-06-19T10:15:09;97990.22;;;29.60;37.44
75627;BME280;67372;49.404;11.034;2023-06-19T10:17:37;97987.69;;;29.55;37.13
75627;BME280;67372;49.404;11.034;2023-06-19T10:20:04;97985.63;;;29.52;37.16
75627;BME280;67372;49.404;11.034;2023-06-19T10:22:31;97979.09;;;29.44;37.95
75627;BME280;67372;49.404;11.034;2023-06-19T10:24:58;97981.72;;;29.41;38.09
75627;BME280;67372;49.404;11.034;2023-06-19T10:27:25;97978.78;;;29.46;38.31
75627;BME280;67372;49.404;11.034;2023-06-19T10:29:52;97977.84;;;29.42;37.84
75627;BME280;67372;49.404;11.034;2023-06-19T10:32:38;97967.63;;;29.42;37.91
75627;BME280;67372;49.404;11.034;2023-06-19T10:35:10;97971.31;;;29.34;38.27
75627;BME280;67372;49.404;11.034;2023-06-19T10:37:37;97967.28;;;29.31;38.46
75627;BME280;67372;49.404;11.034;2023-06-19T10:40:04;97974.88;;;29.22;37.87
75627;BME280;67372;49.404;11.034;2023-06-19T10:42:31;97963.88;;;29.10;38.17
75627;BME280;67372;49.404;11.034;2023-06-19T10:45:05;97962.84;;;29.02;38.13
75627;BME280;67372;49.404;11.034;2023-06-19T10:47:33;97964.78;;;29.02;38.04
75627;BME280;67372;49.404;11.034;2023-06-19T10:49:59;97961.59;;;29.00;38.09
75627;BME280;67372;49.404;11.034;2023-06-19T10:52:28;97955.97;;;28.96;38.41
75627;BME280;67372;49.404;11.034;2023-06-19T10:54:55;97947.84;;;29.00;38.49
75627;BME280;67372;49.404;11.034;2023-06-19T10:57:30;97952.88;;;28.98;38.27
75627;BME280;67372;49.404;11.034;2023-06-19T10:59:57;97942.25;;;28.96;38.24
75627;BME280;67372;49.404;11.034;2023-06-19T11:02:24;97949.81;;;28.87;38.22
75627;BME280;67372;49.404;11.034;2023-06-19T11:04:52;97946.38;;;28.90;38.21
75627;BME280;67372;49.404;11.034;2023-06-19T11:07:19;97947.56;;;28.81;38.10
75627;BME280;67372;49.404;11.034;2023-06-19T11:09:45;97952.72;;;28.82;38.09
75627;BME280;67372;49.404;11.034;2023-06-19T11:12:12;97949.47;;;28.89;38.23
75627;BME280;67372;49.404;11.034;2023-06-19T11:14:44;97947.63;;;28.93;38.08
75627;BME280;67372;49.404;11.034;2023-06-19T11:17:11;97946.94;;;28.96;37.92
75627;BME280;67372;49.404;11.034;2023-06-19T11:19:38;97952.72;;;28.82;38.21
75627;BME280;67372;49.404;11.034;2023-06-19T11:22:05;97947.38;;;28.86;38.09
75627;BME280;67372;49.404;11.034;2023-06-19T11:24:31;97952.22;;;28.89;38.27
75627;BME280;67372;49.404;11.034;2023-06-19T11:26:58;97934.81;;;28.97;38.35
75627;BME280;67372;49.404;11.034;2023-06-19T11:29:25;97936.28;;;29.07;38.05
75627;BME280;67372;49.404;11.034;2023-06-19T11:32:05;97944.28;;;29.24;37.86
75627;BME280;67372;49.404;11.034;2023-06-19T11:34:33;97942.91;;;29.42;37.49
75627;BME280;67372;49.404;11.034;2023-06-19T11:36:59;97935.69;;;29.62;37.34
75627;BME280;67372;49.404;11.034;2023-06-19T11:39:27;97925.78;;;29.73;36.65
75627;BME280;67372;49.404;11.034;2023-06-19T11:41:54;97916.53;;;29.66;36.70
75627;BME280;67372;49.404;11.034;2023-06-19T11:44:20;97922.47;;;29.68;37.17
75627;BME280;67372;49.404;11.034;2023-06-19T11:46:47;97922.13;;;29.69;36.85
75627;BME280;67372;49.404;11.034;2023-06-19T11:49:15;97913.41;;;29.67;37.45
75627;BME280;67372;49.404;11.034;2023-06-19T11:51:41;97907.63;;;29.84;36.86
75627;BME280;67372;49.404;11.034;2023-06-19T11:54:08;97914.09;;;30.04;36.92
75627;BME280;67372;49.404;11.034;2023-06-19T11:56:36;97911.13;;;30.25;36.10
75627;BME280;67372;49.404;11.034;2023-06-19T11:59:03;97902.34;;;30.35;35.87
75627;BME280;67372;49.404;11.034;2023-06-19T12:01:31;97898.44;;;30.52;35.04
75627;BME280;67372;49.404;11.034;2023-06-19T12:03:57;97893.69;;;30.80;34.39
75627;BME280;67372;49.404;11.034;2023-06-19T12:06:25;97895.16;;;30.94;34.57
75627;BME280;67372;49.404;11.034;2023-06-19T12:08:52;97894.72;;;30.92;34.46
75627;BME280;67372;49.404;11.034;2023-06-19T12:11:18;97892.06;;;30.95;34.02
75627;BME280;67372;49.404;11.034;2023-06-19T12:13:45;97885.22;;;31.05;34.25
75627;BME280;67372;49.404;11.034;2023-06-19T12:16:12;97880.22;;;31.10;34.25
75627;BME280;67372;49.404;11.034;2023-06-19T12:18:39;97896.84;;;31.14;34.06
75627;BME280;67372;49.404;11.034;2023-06-19T12:21:06;97882.19;;;31.26;34.11
75627;BME280;67372;49.404;11.034;2023-06-19T12:23:40;97893.44;;;31.36;34.11
75627;BME280;67372;49.404;11.034;2023-06-19T12:26:06;97887.13;;;31.55;33.64
75627;BME280;67372;49.404;11.034;2023-06-19T12:28:33;97877.47;;;31.65;32.42
75627;BME280;67372;49.404;11.034;2023-06-19T12:30:59;97875.84;;;31.80;32.02
75627;BME280;67372;49.404;11.034;2023-06-19T12:33:25;97876.41;;;31.89;31.79
75627;BME280;67372;49.404;11.034;2023-06-19T12:35:52;97880.97;;;32.00;32.08
75627;BME280;67372;49.404;11.034;2023-06-19T12:38:18;97876.63;;;31.99;32.29
75627;BME280;67372;49.404;11.034;2023-06-19T12:40:44;97879.22;;;31.92;32.57
75627;BME280;67372;49.404;11.034;2023-06-19T12:43:11;97876.19;;;31.97;32.45
75627;BME280;67372;49.404;11.034;2023-06-19T12:45:37;97875.28;;;32.13;32.49
75627;BME280;67372;49.404;11.034;2023-06-19T12:48:04;97881.91;;;32.08;32.08
75627;BME280;67372;49.404;11.034;2023-06-19T12:50:31;97883.88;;;32.08;32.52
75627;BME280;67372;49.404;11.034;2023-06-19T12:52:57;97882.63;;;32.05;31.87